createdAt,value
2019-05-14T00:02:03.507Z,99729.70
2019-05-14T00:04:11.563Z,99729.55
2019-05-14T00:06:18.919Z,99727.44
2019-05-14T00:08:26.069Z,99732.51
2019-05-14T00:10:33.187Z,99725.88
2019-05-14T00:12:41.848Z,99717.22
2019-05-14T00:14:51.450Z,99721.59
2019-05-14T00:16:57.880Z,99723.83
2019-05-14T00:19:06.078Z,99717.99
2019-05-14T00:21:13.372Z,99716.80
2019-05-14T00:23:21.458Z,99717.53
2019-05-14T00:25:31.119Z,99721.31
2019-05-14T00:27:37.551Z,99722.86
2019-05-14T00:29:44.667Z,99718.91
2019-05-14T00:31:51.829Z,99711.89
2019-05-14T00:33:58.960Z,99715.54
2019-05-14T00:36:06.151Z,99711.17
2019-05-14T00:38:13.274Z,99712.09
2019-05-14T00:40:22.127Z,99709.29
2019-05-14T00:42:31.767Z,99708.39
2019-05-14T00:44:51.590Z,99707.91
2019-05-14T00:46:46.972Z,99703.27
2019-05-14T00:48:54.152Z,99701.84
2019-05-14T00:51:02.456Z,99704.45
2019-05-14T00:53:11.790Z,99699.05
2019-05-14T00:55:18.679Z,99692.52
2019-05-14T00:57:25.725Z,99694.94
2019-05-14T00:59:32.814Z,99693.70
2019-05-14T01:01:42.285Z,99689.21
2019-05-14T01:03:48.624Z,99686.42
2019-05-14T01:05:55.778Z,99690.83
2019-05-14T01:08:02.899Z,99692.27
2019-05-14T01:10:12.128Z,99687.56
2019-05-14T01:12:21.233Z,99685.61
2019-05-14T01:14:28.094Z,99689.82
2019-05-14T01:16:35.192Z,99696.92
2019-05-14T01:18:42.279Z,99687.66
2019-05-14T01:20:51.707Z,99688.98
2019-05-14T01:22:58.247Z,99690.02
2019-05-14T01:25:05.683Z,99693.12
2019-05-14T01:27:12.884Z,99688.52
2019-05-14T01:29:21.966Z,99689.24
2019-05-14T01:31:31.270Z,99691.97
2019-05-14T01:33:38.044Z,99686.66
2019-05-14T01:35:45.103Z,99684.42
2019-05-14T01:37:52.418Z,99685.17
2019-05-14T01:40:01.211Z,99686.70
2019-05-14T01:42:08.327Z,99687.13
2019-05-14T01:44:15.516Z,99684.65
2019-05-14T01:46:22.743Z,99684.64
2019-05-14T01:48:31.297Z,99678.34
2019-05-14T01:50:38.628Z,99679.20
2019-05-14T01:52:45.731Z,99680.92
2019-05-14T01:54:54.684Z,99673.69
2019-05-14T01:57:02.239Z,99677.12
2019-05-14T01:59:09.441Z,99670.01
2019-05-14T02:01:16.505Z,99662.28
2019-05-14T02:03:25.579Z,99649.97
2019-05-14T02:05:33.172Z,99649.91
2019-05-14T02:07:42.026Z,99644.07
2019-05-14T02:09:49.147Z,99644.99
2019-05-14T02:11:56.201Z,99637.35
2019-05-14T02:14:03.254Z,99636.05
2019-05-14T02:16:12.992Z,99632.63
2019-05-14T02:18:21.760Z,99633.41
2019-05-14T02:20:32.144Z,99635.70
2019-05-14T02:22:41.677Z,99641.73
2019-05-14T02:24:49.314Z,99631.88
2019-05-14T02:26:57.039Z,99634.39
2019-05-14T02:29:04.256Z,99630.07
2019-05-14T02:31:11.316Z,99625.23
2019-05-14T02:33:19.242Z,99625.41
2019-05-14T02:35:29.670Z,99620.01
2019-05-14T02:37:35.403Z,99618.01
2019-05-14T02:39:42.447Z,99617.30
2019-05-14T02:41:54.093Z,99622.67
2019-05-14T02:44:01.204Z,99626.11
2019-05-14T02:46:16.035Z,99624.89
2019-05-14T02:48:22.651Z,99622.38
2019-05-14T02:50:29.833Z,99620.46
2019-05-14T02:52:39.870Z,99617.02
2019-05-14T02:54:49.250Z,99620.91
2019-05-14T02:56:54.504Z,99622.36
2019-05-14T02:59:05.644Z,99617.17
2019-05-14T03:01:10.325Z,99617.52
2019-05-14T03:03:19.229Z,99616.67
2019-05-14T03:05:29.320Z,99617.50
2019-05-14T03:07:35.294Z,99618.92
2019-05-14T03:09:42.342Z,99618.49
2019-05-14T03:11:49.538Z,99613.30
2019-05-14T03:13:59.764Z,99612.35
2019-05-14T03:16:22.443Z,99609.83
2019-05-14T03:18:14.685Z,99616.53
2019-05-14T03:20:21.814Z,99606.53
2019-05-14T03:22:43.500Z,99605.77
2019-05-14T03:24:39.669Z,99607.34
2019-05-14T03:26:49.662Z,99609.35
2019-05-14T03:28:55.551Z,99617.55
2019-05-14T03:31:04.126Z,99612.18
2019-05-14T03:33:13.262Z,99616.20
2019-05-14T03:35:23.376Z,99612.86
2019-05-14T03:37:31.036Z,99612.19
2019-05-14T03:39:39.675Z,99611.78
2019-05-14T03:41:49.920Z,99603.45
2019-05-14T03:44:00.054Z,99605.02
2019-05-14T03:46:09.473Z,99605.28
2019-05-14T03:48:15.414Z,99605.50
2019-05-14T03:50:22.585Z,99600.48
2019-05-14T03:52:30.168Z,99604.92
2019-05-14T03:54:40.737Z,99607.11
2019-05-14T03:56:49.362Z,99594.89
2019-05-14T03:58:55.403Z,99600.41
2019-05-14T04:01:03.260Z,99596.20
2019-05-14T04:03:10.489Z,99596.28
2019-05-14T04:05:22.649Z,99598.72
2019-05-14T04:07:30.328Z,99598.74
2019-05-14T04:09:40.007Z,99598.53
2019-05-14T04:11:50.922Z,99589.70
2019-05-14T04:14:01.254Z,99596.16
2019-05-14T04:16:09.589Z,99595.69
2019-05-14T04:18:18.650Z,99589.19
2019-05-14T04:20:29.774Z,99588.22
2019-05-14T04:22:39.297Z,99595.69
2019-05-14T04:24:49.594Z,99597.05
2019-05-14T04:27:07.126Z,99589.84
2019-05-14T04:29:13.027Z,99595.39
2019-05-14T04:31:24.948Z,99588.55
2019-05-14T04:33:39.022Z,99594.05
2019-05-14T04:35:45.200Z,99584.48
2019-05-14T04:37:52.716Z,99583.98
2019-05-14T04:39:59.818Z,99596.68
2019-05-14T04:42:09.659Z,99586.97
2019-05-14T04:44:18.936Z,99587.70
2019-05-14T04:46:24.700Z,99591.04
2019-05-14T04:48:37.491Z,99581.58
2019-05-14T04:50:42.472Z,99582.54
2019-05-14T04:52:52.384Z,99584.80
2019-05-14T04:54:59.781Z,99588.43
2019-05-14T04:57:10.115Z,99581.91
2019-05-14T04:59:19.011Z,99578.89
2019-05-14T05:01:24.513Z,99582.40
2019-05-14T05:03:31.921Z,99575.77
2019-05-14T05:05:40.903Z,99580.53
2019-05-14T05:07:49.199Z,99581.62
2019-05-14T05:09:59.362Z,99582.49
2019-05-14T05:12:08.844Z,99570.60
2019-05-14T05:14:15.187Z,99576.75
2019-05-14T05:16:22.316Z,99577.13
2019-05-14T05:18:29.875Z,99580.42
2019-05-14T05:20:39.374Z,99575.18
2019-05-14T05:22:48.358Z,99572.52
2019-05-14T05:24:54.571Z,99575.70
2019-05-14T05:27:01.625Z,99575.41
2019-05-14T05:29:10.575Z,99570.81
2019-05-14T05:31:18.686Z,99569.94
2019-05-14T05:33:25.944Z,99569.67
2019-05-14T05:35:33.094Z,99564.16
2019-05-14T05:37:40.139Z,99564.48
2019-05-14T05:39:49.289Z,99565.03
2019-05-14T05:41:58.531Z,99566.81
2019-05-14T05:44:08.026Z,99562.02
2019-05-14T05:46:14.337Z,99556.08
2019-05-14T05:48:21.418Z,99558.14
2019-05-14T05:50:28.844Z,99552.91
2019-05-14T05:52:38.539Z,99557.00
2019-05-14T05:54:44.815Z,99553.69
2019-05-14T05:56:51.853Z,99553.03
2019-05-14T05:59:00.687Z,99558.54
2019-05-14T06:01:09.580Z,99554.47
2019-05-14T06:03:20.560Z,99557.20
2019-05-14T06:05:29.110Z,99555.36
2019-05-14T06:07:39.218Z,99553.94
2019-05-14T06:09:45.412Z,99557.26
2019-05-14T06:11:52.456Z,99547.32
2019-05-14T06:13:59.542Z,99559.28
2019-05-14T06:16:09.215Z,99552.84
2019-05-14T06:18:19.503Z,99559.09
2019-05-14T06:20:24.375Z,99553.28
2019-05-14T06:22:31.445Z,99558.89
2019-05-14T06:24:39.146Z,99555.42
2019-05-14T06:27:04.454Z,99555.77
2019-05-14T06:29:11.748Z,99557.39
2019-05-14T06:31:19.424Z,99554.30
2019-05-14T06:33:28.620Z,99555.14
2019-05-14T06:35:35.825Z,99566.09
2019-05-14T06:37:42.951Z,99557.14
2019-05-14T06:39:50.087Z,99559.21
2019-05-14T06:41:58.517Z,99556.17
2019-05-14T06:44:05.942Z,99556.27
2019-05-14T06:46:15.795Z,99552.09
2019-05-14T06:48:30.848Z,99551.25
2019-05-14T06:50:31.609Z,99544.63
2019-05-14T06:52:39.004Z,99548.28
2019-05-14T06:54:46.102Z,99543.78
2019-05-14T06:56:53.214Z,99541.08
2019-05-14T06:59:00.872Z,99539.28
2019-05-14T07:01:09.635Z,99537.53
2019-05-14T07:03:18.018Z,99542.13
2019-05-14T07:05:25.322Z,99537.05
2019-05-14T07:07:33.533Z,99534.84
2019-05-14T07:09:41.396Z,99529.94
2019-05-14T07:11:49.323Z,99531.38
2019-05-14T07:13:58.141Z,99524.68
2019-05-14T07:16:05.441Z,99521.22
2019-05-14T07:18:12.521Z,99520.35
2019-05-14T07:20:19.733Z,99524.04
2019-05-14T07:22:28.183Z,99528.36
2019-05-14T07:24:38.040Z,99523.13
2019-05-14T07:26:44.654Z,99520.05
2019-05-14T07:28:51.744Z,99525.70
2019-05-14T07:30:59.468Z,99524.44
2019-05-14T07:33:09.424Z,99525.79
2019-05-14T07:35:18.387Z,99521.95
2019-05-14T07:37:25.795Z,99519.74
2019-05-14T07:39:32.819Z,99529.63
2019-05-14T07:41:39.881Z,99521.32
2019-05-14T07:43:48.295Z,99521.44
2019-05-14T07:45:58.048Z,99519.30
2019-05-14T07:48:04.450Z,99517.34
2019-05-14T07:50:12.302Z,99518.29
2019-05-14T07:52:19.874Z,99521.86
2019-05-14T07:54:28.265Z,99523.40
2019-05-14T07:56:38.270Z,99513.34
2019-05-14T07:58:44.517Z,99511.41
2019-05-14T08:00:53.455Z,99502.12
2019-05-14T08:03:00.543Z,99499.22
2019-05-14T08:05:08.764Z,99503.67
2019-05-14T08:07:18.005Z,99501.13
2019-05-14T08:09:24.940Z,99500.64
2019-05-14T08:11:33.090Z,99498.84
2019-05-14T08:13:42.622Z,99489.70
2019-05-14T08:15:49.155Z,99494.37
2019-05-14T08:17:58.426Z,99496.53
2019-05-14T08:20:09.088Z,99495.25
2019-05-14T08:22:18.671Z,99496.66
2019-05-14T08:24:27.133Z,99492.73
2019-05-14T08:26:34.808Z,99492.09
2019-05-14T08:28:41.959Z,99494.48
2019-05-14T08:30:50.895Z,99487.05
2019-05-14T08:32:58.386Z,99490.93
2019-05-14T08:35:09.014Z,99488.77
2019-05-14T08:37:18.886Z,99482.98
2019-05-14T08:39:25.175Z,99483.73
2019-05-14T08:41:32.260Z,99477.69
2019-05-14T08:43:39.859Z,99490.14
2019-05-14T08:45:48.779Z,99486.43
2019-05-14T08:47:58.478Z,99477.67
2019-05-14T08:50:05.601Z,99482.61
2019-05-14T08:52:15.971Z,99478.91
2019-05-14T08:54:21.764Z,99485.77
2019-05-14T08:56:28.950Z,99485.77
2019-05-14T08:58:38.302Z,99479.10
2019-05-14T09:00:44.844Z,99477.26
2019-05-14T09:02:51.886Z,99478.52
2019-05-14T09:05:04.007Z,99472.23
2019-05-14T09:07:09.534Z,99482.37
2019-05-14T09:09:18.537Z,99462.44
2019-05-14T09:11:34.419Z,99463.47
2019-05-14T09:13:38.355Z,99460.13
2019-05-14T09:15:45.578Z,99457.58
2019-05-14T09:17:52.688Z,99460.34
2019-05-14T09:20:06.728Z,99450.83
2019-05-14T09:22:09.542Z,99459.91
2019-05-14T09:24:18.206Z,99447.35
2019-05-14T09:26:28.522Z,99448.48
2019-05-14T09:28:35.824Z,99451.03
2019-05-14T09:30:43.074Z,99438.50
2019-05-14T09:32:51.970Z,99440.05
2019-05-14T09:35:00.343Z,99446.53
2019-05-14T09:37:08.788Z,99443.88
2019-05-14T09:39:18.781Z,99445.41
2019-05-14T09:41:28.582Z,99453.23
2019-05-14T09:43:39.236Z,99446.56
2019-05-14T09:45:48.272Z,99449.18
2019-05-14T09:47:58.488Z,99447.73
2019-05-14T09:50:22.861Z,99448.87
2019-05-14T09:52:19.117Z,99449.14
2019-05-14T09:54:28.736Z,99441.17
2019-05-14T09:56:39.361Z,99438.78
2019-05-14T09:58:46.311Z,99444.33
2019-05-14T10:00:54.186Z,99439.25
2019-05-14T10:03:02.144Z,99444.33
2019-05-14T10:05:10.578Z,99438.63
2019-05-14T10:07:18.586Z,99433.64
2019-05-14T10:09:28.833Z,99441.20
2019-05-14T10:11:38.211Z,99437.55
2019-05-14T10:13:48.357Z,99429.45
2019-05-14T10:15:58.737Z,99429.42
2019-05-14T10:18:11.003Z,99426.31
2019-05-14T10:20:35.558Z,99441.13
2019-05-14T10:22:28.594Z,99429.22
2019-05-14T10:24:38.491Z,99429.48
2019-05-14T10:26:48.977Z,99425.73
2019-05-14T10:28:58.869Z,99420.63
2019-05-14T10:31:09.349Z,99419.67
2019-05-14T10:33:18.140Z,99419.35
2019-05-14T10:35:28.485Z,99423.42
2019-05-14T10:37:35.974Z,99415.00
2019-05-14T10:39:43.854Z,99423.33
2019-05-14T10:41:51.751Z,99418.66
2019-05-14T10:43:59.720Z,99413.62
2019-05-14T10:46:09.128Z,99408.61
2019-05-14T10:48:18.606Z,99408.15
2019-05-14T10:50:28.993Z,99413.77
2019-05-14T10:52:39.538Z,99405.34
2019-05-14T10:54:55.275Z,99406.41
2019-05-14T10:56:58.914Z,99397.13
2019-05-14T10:59:09.206Z,99394.77
2019-05-14T11:01:15.970Z,99401.06
2019-05-14T11:03:23.995Z,99403.66
2019-05-14T11:05:31.872Z,99401.88
2019-05-14T11:07:41.703Z,99405.33
2019-05-14T11:09:49.479Z,99400.70
2019-05-14T11:11:58.332Z,99400.54
2019-05-14T11:14:08.834Z,99399.35
2019-05-14T11:16:19.005Z,99401.68
2019-05-14T11:18:29.090Z,99401.13
2019-05-14T11:20:36.262Z,99400.67
2019-05-14T11:22:45.139Z,99405.14
2019-05-14T11:24:53.189Z,99401.22
2019-05-14T11:27:02.195Z,99401.96
2019-05-14T11:29:10.504Z,99396.91
2019-05-14T11:31:19.249Z,99399.23
2019-05-14T11:33:29.591Z,99397.13
2019-05-14T11:35:39.483Z,99393.88
2019-05-14T11:37:48.002Z,99388.95
2019-05-14T11:39:57.978Z,99390.50
2019-05-14T11:42:08.284Z,99398.94
2019-05-14T11:44:15.407Z,99390.19
2019-05-14T11:46:39.486Z,99387.80
2019-05-14T11:48:34.552Z,99392.63
2019-05-14T11:50:42.444Z,99385.95
2019-05-14T11:52:50.320Z,99388.71
2019-05-14T11:54:58.565Z,99390.67
2019-05-14T11:57:11.464Z,99387.40
2019-05-14T11:59:16.008Z,99383.23
2019-05-14T12:01:24.259Z,99378.88
2019-05-14T12:03:32.211Z,99382.22
2019-05-14T12:05:40.092Z,99376.42
2019-05-14T12:07:48.077Z,99377.81
2019-05-14T12:09:56.044Z,99371.62
2019-05-14T12:12:04.140Z,99370.44
2019-05-14T12:14:12.935Z,99367.13
2019-05-14T12:16:20.808Z,99370.77
2019-05-14T12:18:29.142Z,99360.86
2019-05-14T12:20:39.613Z,99357.97
2019-05-14T12:22:48.785Z,99375.56
2019-05-14T12:24:58.450Z,99351.23
2019-05-14T12:27:08.830Z,99355.55
2019-05-14T12:29:16.161Z,99351.38
2019-05-14T12:31:24.098Z,99352.07
2019-05-14T12:33:32.159Z,99354.33
2019-05-14T12:35:40.465Z,99353.48
2019-05-14T12:37:48.555Z,99346.69
2019-05-14T12:39:58.627Z,99339.31
2019-05-14T12:42:06.126Z,99347.70
2019-05-14T12:44:14.020Z,99337.44
2019-05-14T12:46:21.971Z,99330.55
2019-05-14T12:48:30.048Z,99333.14
2019-05-14T12:50:39.282Z,99327.05
2019-05-14T12:52:48.457Z,99324.64
2019-05-14T12:54:59.612Z,99330.91
2019-05-14T12:57:06.243Z,99330.48
2019-05-14T12:59:14.165Z,99323.52
2019-05-14T13:01:23.117Z,99323.36
2019-05-14T13:03:31.018Z,99317.71
2019-05-14T13:05:38.997Z,99321.53
2019-05-14T13:07:51.049Z,99317.20
2019-05-14T13:09:58.381Z,99317.44
2019-05-14T13:12:10.936Z,99322.11
2019-05-14T13:14:17.293Z,99323.63
2019-05-14T13:16:25.213Z,99331.34
2019-05-14T13:18:33.126Z,99328.28
2019-05-14T13:20:42.613Z,99325.89
2019-05-14T13:22:50.675Z,99327.16
2019-05-14T13:24:58.589Z,99319.48
2019-05-14T13:27:09.221Z,99317.16
2019-05-14T13:29:19.126Z,99320.59
2019-05-14T13:31:26.013Z,99317.05
2019-05-14T13:33:34.654Z,99309.09
2019-05-14T13:35:42.635Z,99308.55
2019-05-14T13:37:50.626Z,99302.83
2019-05-14T13:39:59.506Z,99303.42
2019-05-14T13:42:11.708Z,99306.65
2019-05-14T13:44:24.476Z,99290.02
2019-05-14T13:46:28.830Z,99295.08
2019-05-14T13:48:42.706Z,99282.17
2019-05-14T13:50:49.049Z,99280.27
2019-05-14T13:53:06.886Z,99279.38
2019-05-14T13:55:10.907Z,99282.28
2019-05-14T13:57:19.596Z,99282.52
2019-05-14T13:59:27.866Z,99274.77
2019-05-14T14:01:36.113Z,99276.45
2019-05-14T14:03:49.532Z,99277.05
2019-05-14T14:05:54.470Z,99270.28
2019-05-14T14:08:03.343Z,99271.25
2019-05-14T14:10:11.916Z,99270.57
2019-05-14T14:12:20.176Z,99259.54
2019-05-14T14:14:29.255Z,99269.23
2019-05-14T14:16:39.563Z,99262.20
2019-05-14T14:18:50.095Z,99263.68
2019-05-14T14:20:57.309Z,99264.02
2019-05-14T14:23:18.882Z,99255.83
2019-05-14T14:25:17.794Z,99256.98
2019-05-14T14:27:29.717Z,99253.57
2019-05-14T14:29:35.897Z,99244.52
2019-05-14T14:31:44.857Z,99248.93
2019-05-14T14:33:52.706Z,99241.75
2019-05-14T14:36:00.610Z,99239.05
2019-05-14T14:38:09.628Z,99239.20
2019-05-14T14:40:22.275Z,99245.99
2019-05-14T14:42:29.668Z,99239.32
2019-05-14T14:44:39.289Z,99234.17
2019-05-14T14:46:49.026Z,99235.22
2019-05-14T14:49:01.500Z,99231.08
2019-05-14T14:51:08.447Z,99228.00
2019-05-14T14:53:16.387Z,99234.42
2019-05-14T14:55:24.403Z,99231.00
2019-05-14T14:57:32.279Z,99227.28
2019-05-14T14:59:40.242Z,99228.48
2019-05-14T15:01:50.193Z,99234.95
2019-05-14T15:04:00.032Z,99235.56
2019-05-14T15:06:10.899Z,99234.06
2019-05-14T15:08:20.082Z,99233.13
2019-05-14T15:10:28.569Z,99236.92
2019-05-14T15:12:40.098Z,99229.50
2019-05-14T15:14:48.726Z,99227.64
2019-05-14T15:16:58.920Z,99227.69
2019-05-14T15:19:09.217Z,99220.27
2019-05-14T15:21:18.951Z,99222.11
2019-05-14T15:23:28.509Z,99216.44
2019-05-14T15:25:36.773Z,99215.13
2019-05-14T15:27:44.672Z,99215.86
2019-05-14T15:29:52.591Z,99214.42
2019-05-14T15:32:00.555Z,99209.06
2019-05-14T15:34:09.102Z,99208.05
2019-05-14T15:36:19.603Z,99204.40
2019-05-14T15:38:30.299Z,99206.88
2019-05-14T15:40:39.793Z,99206.47
2019-05-14T15:42:46.160Z,99208.28
2019-05-14T15:44:56.152Z,99206.16
2019-05-14T15:47:04.022Z,99213.58
2019-05-14T15:49:12.077Z,99201.52
2019-05-14T15:51:20.125Z,99196.52
2019-05-14T15:53:29.031Z,99201.25
2019-05-14T15:55:38.353Z,99193.89
2019-05-14T15:57:46.425Z,99193.13
2019-05-14T15:59:54.407Z,99196.76
2019-05-14T16:02:02.350Z,99197.80
2019-05-14T16:04:11.494Z,99185.59
2019-05-14T16:06:19.644Z,99198.97
2019-05-14T16:08:29.654Z,99197.12
2019-05-14T16:10:39.714Z,99205.35
2019-05-14T16:12:49.639Z,99189.19
2019-05-14T16:14:57.039Z,99194.13
2019-05-14T16:17:05.234Z,99190.47
2019-05-14T16:19:13.206Z,99191.50
2019-05-14T16:21:21.095Z,99189.38
2019-05-14T16:23:29.019Z,99191.63
2019-05-14T16:25:37.987Z,99187.29
2019-05-14T16:27:46.141Z,99181.21
2019-05-14T16:29:54.091Z,99189.66
2019-05-14T16:32:03.079Z,99191.86
2019-05-14T16:34:11.035Z,99188.14
2019-05-14T16:36:19.257Z,99191.17
2019-05-14T16:38:28.544Z,99192.14
2019-05-14T16:40:39.275Z,99200.45
2019-05-14T16:42:48.465Z,99189.50
2019-05-14T16:44:56.189Z,99187.88
2019-05-14T16:47:04.382Z,99195.64
2019-05-14T16:49:12.339Z,99192.53
2019-05-14T16:51:20.328Z,99186.55
2019-05-14T16:53:28.751Z,99184.39
2019-05-14T16:55:38.464Z,99170.37
2019-05-14T16:57:49.160Z,99156.49
2019-05-14T16:59:58.533Z,99166.98
2019-05-14T17:02:06.249Z,99168.60
2019-05-14T17:04:14.167Z,99163.59
2019-05-14T17:06:22.196Z,99155.78
2019-05-14T17:08:30.158Z,99161.39
2019-05-14T17:10:38.741Z,99160.66
2019-05-14T17:12:55.852Z,99162.84
2019-05-14T17:14:58.734Z,99160.32
2019-05-14T17:17:09.190Z,99171.49
2019-05-14T17:19:18.739Z,99166.14
2019-05-14T17:21:26.238Z,99171.03
2019-05-14T17:23:34.150Z,99183.89
2019-05-14T17:25:41.940Z,99174.67
2019-05-14T17:27:49.899Z,99178.35
2019-05-14T17:29:58.999Z,99180.61
2019-05-14T17:32:07.929Z,99181.83
2019-05-14T17:34:18.384Z,99184.84
2019-05-14T17:36:28.120Z,99180.38
2019-05-14T17:38:35.034Z,99175.56
2019-05-14T17:40:42.991Z,99177.55
2019-05-14T17:42:51.086Z,99171.71
2019-05-14T17:44:59.043Z,99161.99
2019-05-14T17:47:07.013Z,99160.11
2019-05-14T17:49:15.038Z,99161.98
2019-05-14T17:51:22.931Z,99152.66
2019-05-14T17:53:31.834Z,99145.97
2019-05-14T17:55:47.039Z,99140.92
2019-05-14T17:57:58.145Z,99142.48
2019-05-14T18:00:00.058Z,99145.47
2019-05-14T18:02:08.743Z,99145.27
2019-05-14T18:04:18.344Z,99142.22
2019-05-14T18:06:28.557Z,99130.52
2019-05-14T18:08:36.467Z,99146.27
2019-05-14T18:10:44.251Z,99134.09
2019-05-14T18:12:53.309Z,99137.89
2019-05-14T18:15:02.192Z,99147.94
2019-05-14T18:17:10.321Z,99144.15
2019-05-14T18:19:18.373Z,99151.09
2019-05-14T18:21:28.512Z,99152.59
2019-05-14T18:23:39.554Z,99165.39
2019-05-14T18:26:02.778Z,99180.97
2019-05-14T18:27:55.249Z,99166.48
2019-05-14T18:30:03.274Z,99166.22
2019-05-14T18:32:12.241Z,99163.35
2019-05-14T18:34:20.242Z,99159.20
2019-05-14T18:36:28.578Z,99151.44
2019-05-14T18:38:38.852Z,99155.66
2019-05-14T18:40:49.434Z,99144.93
2019-05-14T18:42:59.200Z,99148.02
2019-05-14T18:45:08.616Z,99140.01
2019-05-14T18:47:19.349Z,99152.70
2019-05-14T18:49:28.616Z,99153.23
2019-05-14T18:51:35.934Z,99163.50
2019-05-14T18:53:44.491Z,99155.31
2019-05-14T18:55:52.386Z,99167.73
2019-05-14T18:58:00.302Z,99171.86
2019-05-14T19:00:10.523Z,99160.38
2019-05-14T19:02:18.668Z,99163.09
2019-05-14T19:04:28.018Z,99160.27
2019-05-14T19:06:38.335Z,99151.66
2019-05-14T19:08:48.152Z,99154.97
2019-05-14T19:10:55.592Z,99145.18
2019-05-14T19:13:03.534Z,99136.53
2019-05-14T19:15:12.280Z,99127.52
2019-05-14T19:17:20.336Z,99139.30
2019-05-14T19:19:29.402Z,99139.63
2019-05-14T19:21:38.303Z,99126.38
2019-05-14T19:23:46.390Z,99121.80
2019-05-14T19:25:54.324Z,99115.14
2019-05-14T19:28:02.227Z,99107.31
2019-05-14T19:30:10.590Z,99101.74
2019-05-14T19:32:19.208Z,99114.56
2019-05-14T19:34:28.723Z,99106.91
2019-05-14T19:36:36.778Z,99110.50
2019-05-14T19:38:44.697Z,99106.06
2019-05-14T19:40:52.590Z,99109.56
2019-05-14T19:43:00.555Z,99106.73
2019-05-14T19:45:09.003Z,99095.34
2019-05-14T19:47:18.734Z,99100.13
2019-05-14T19:49:28.673Z,99093.55
2019-05-14T19:51:38.557Z,99093.83
2019-05-14T19:53:45.863Z,99094.69
2019-05-14T19:55:53.890Z,99096.37
2019-05-14T19:58:01.713Z,99095.96
2019-05-14T20:00:10.685Z,99092.70
2019-05-14T20:02:18.649Z,99091.90
2019-05-14T20:04:29.006Z,99084.31
2019-05-14T20:06:38.840Z,99091.05
2019-05-14T20:08:48.273Z,99085.78
2019-05-14T20:10:56.371Z,99084.97
2019-05-14T20:13:04.279Z,99081.22
2019-05-14T20:15:13.002Z,99072.02
2019-05-14T20:17:22.879Z,99075.08
2019-05-14T20:19:30.843Z,99079.50
2019-05-14T20:21:39.113Z,99073.72
2019-05-14T20:23:48.170Z,99077.83
2019-05-14T20:25:56.150Z,99065.03
2019-05-14T20:28:04.576Z,99074.57
2019-05-14T20:30:13.162Z,99074.30
2019-05-14T20:32:20.946Z,99068.98
2019-05-14T20:34:28.985Z,99067.23
2019-05-14T20:36:38.949Z,99066.34
2019-05-14T20:38:48.134Z,99065.97
2019-05-14T20:40:58.013Z,99071.06
2019-05-14T20:43:05.813Z,99076.33
2019-05-14T20:45:14.344Z,99072.84
2019-05-14T20:47:22.141Z,99068.52
2019-05-14T20:49:30.179Z,99068.32
2019-05-14T20:51:38.843Z,99066.20
2019-05-14T20:53:48.750Z,99068.32
2019-05-14T20:55:58.825Z,99067.00
2019-05-14T20:58:07.996Z,99060.30
2019-05-14T21:00:18.114Z,99065.07
2019-05-14T21:02:25.785Z,99064.45
2019-05-14T21:04:33.790Z,99055.80
2019-05-14T21:06:41.678Z,99053.52
2019-05-14T21:08:49.672Z,99059.12
2019-05-14T21:10:58.764Z,99055.45
2019-05-14T21:13:08.711Z,99066.05
2019-05-14T21:15:18.266Z,99052.31
2019-05-14T21:17:28.198Z,99055.94
2019-05-14T21:19:37.995Z,99054.34
2019-05-14T21:21:46.163Z,99057.02
2019-05-14T21:23:54.167Z,99052.42
2019-05-14T21:26:03.043Z,99069.88
2019-05-14T21:28:10.895Z,99051.61
2019-05-14T21:30:21.757Z,99049.22
2019-05-14T21:32:28.467Z,99038.04
2019-05-14T21:34:38.276Z,99037.67
2019-05-14T21:36:48.978Z,99035.41
2019-05-14T21:38:58.636Z,99032.03
2019-05-14T21:41:06.551Z,99042.81
2019-05-14T21:43:14.468Z,99034.62
2019-05-14T21:45:22.352Z,99018.66
2019-05-14T21:47:30.701Z,99018.84
2019-05-14T21:49:39.758Z,99024.31
2019-05-14T21:51:48.314Z,99022.84
2019-05-14T21:53:58.784Z,99031.60
2019-05-14T21:56:06.867Z,99026.19
2019-05-14T21:58:14.810Z,99015.92
2019-05-14T22:00:31.857Z,99020.39
2019-05-14T22:02:41.345Z,99020.67
2019-05-14T22:04:49.312Z,99012.61
2019-05-14T22:06:58.351Z,99003.02
2019-05-14T22:09:08.753Z,99014.09
2019-05-14T22:11:18.829Z,99006.59
2019-05-14T22:13:28.351Z,98994.81
2019-05-14T22:15:38.966Z,98997.23
2019-05-14T22:17:48.975Z,98995.38
2019-05-14T22:19:58.291Z,98998.41
2019-05-14T22:22:08.012Z,98998.05
2019-05-14T22:24:16.141Z,98983.30
2019-05-14T22:26:24.269Z,98998.69
2019-05-14T22:28:32.254Z,98987.55
2019-05-14T22:30:40.135Z,98977.00
2019-05-14T22:32:48.219Z,98975.85
2019-05-14T22:34:58.444Z,98985.52
2019-05-14T22:37:05.759Z,98977.74
2019-05-14T22:39:13.669Z,98970.66
2019-05-14T22:41:21.554Z,98976.05
2019-05-14T22:43:29.435Z,98970.55
2019-05-14T22:45:37.521Z,98972.66
2019-05-14T22:47:45.425Z,98960.44
2019-05-14T22:49:53.284Z,98955.69
2019-05-14T22:52:01.305Z,98957.14
2019-05-14T22:54:09.404Z,98958.30
2019-05-14T22:56:17.288Z,98960.00
2019-05-14T22:58:25.975Z,98954.24
2019-05-14T23:00:34.680Z,98942.80
2019-05-14T23:02:42.691Z,98952.88
2019-05-14T23:04:50.682Z,98950.05
2019-05-14T23:06:58.774Z,98938.53
2019-05-14T23:09:09.025Z,98938.20
2019-05-14T23:11:19.489Z,98935.87
2019-05-14T23:13:28.081Z,98937.55
2019-05-14T23:15:38.532Z,98934.19
2019-05-14T23:17:48.019Z,98959.06
2019-05-14T23:19:58.090Z,98943.11
2019-05-14T23:22:05.830Z,98938.00
2019-05-14T23:24:13.760Z,98941.96
2019-05-14T23:26:21.802Z,98935.17
2019-05-14T23:28:41.914Z,98939.34
2019-05-14T23:30:39.540Z,98941.22
2019-05-14T23:32:49.043Z,98938.53
2019-05-14T23:34:58.467Z,98943.71
2019-05-14T23:37:08.188Z,98936.45
2019-05-14T23:39:16.208Z,98933.91
2019-05-14T23:41:24.149Z,98930.90
2019-05-14T23:43:32.073Z,98931.67
2019-05-14T23:45:40.241Z,98927.50
2019-05-14T23:47:49.279Z,98928.98
2019-05-14T23:49:58.400Z,98923.68
2019-05-14T23:52:06.447Z,98921.67
2019-05-14T23:54:14.328Z,98919.08
2019-05-14T23:56:22.315Z,98919.66
2019-05-14T23:58:30.239Z,98913.14
